sensor_id;sensor_type;location;lat;lon;timestamp;pressure;altitude;pressure_sealevel;temperature;humidity
62791;BME280;48830;53.426;10.300;2023-02-19T00:02:21;101442.09;;;5.40;100.00
62791;BME280;48830;53.426;10.300;2023-02-19T00:04:46;101429.41;;;5.41;100.00
62791;BME280;48830;53.426;10.300;2023-02-19T00:07:12;101434.66;;;5.44;100.00
62791;BME280;48830;53.426;10.300;2023-02-19T00:09:37;101427.78;;;5.43;100.00
62791;BME280;48830;53.426;10.300;2023-02-19T00:12:03;101439.81;;;5.46;100.00
62791;BME280;48830;53.426;10.300;2023-02-19T00:14:28;101433.91;;;5.47;100.00
62791;BME280;48830;53.426;10.300;2023-02-19T00:16:54;101439.88;;;5.47;100.00
62791;BME280;48830;53.426;10.300;2023-02-19T00:19:20;101442.44;;;5.47;100.00
62791;BME280;48830;53.426;10.300;2023-02-19T00:21:46;101439.22;;;5.51;100.00
62791;BME280;48830;53.426;10.300;2023-02-19T00:24:12;101438.41;;;5.52;100.00
62791;BME280;48830;53.426;10.300;2023-02-19T00:26:39;101436.69;;;5.51;100.00
62791;BME280;48830;53.426;10.300;2023-02-19T00:29:06;101443.38;;;5.49;100.00
62791;BME280;48830;53.426;10.300;2023-02-19T00:31:33;101442.44;;;5.47;100.00
62791;BME280;48830;53.426;10.300;2023-02-19T00:34:02;101441.78;;;5.51;100.00
62791;BME280;48830;53.426;10.300;2023-02-19T00:36:28;101433.91;;;5.47;100.00
62791;BME280;48830;53.426;10.300;2023-02-19T00:38:55;101434.13;;;5.51;100.00
62791;BME280;48830;53.426;10.300;2023-02-19T00:41:21;101423.88;;;5.50;100.00
62791;BME280;48830;53.426;10.300;2023-02-19T00:46:19;101428.09;;;5.49;100.00
62791;BME280;48830;53.426;10.300;2023-02-19T00:48:45;101422.13;;;5.49;100.00
62791;BME280;48830;53.426;10.300;2023-02-19T00:51:11;101423.00;;;5.49;100.00
62791;BME280;48830;53.426;10.300;2023-02-19T00:53:36;101423.88;;;5.50;100.00
62791;BME280;48830;53.426;10.300;2023-02-19T00:56:02;101426.31;;;5.48;100.00
62791;BME280;48830;53.426;10.300;2023-02-19T00:58:28;101436.41;;;5.45;100.00
62791;BME280;48830;53.426;10.300;2023-02-19T01:00:53;101439.81;;;5.46;100.00
62791;BME280;48830;53.426;10.300;2023-02-19T01:03:19;101434.78;;;5.47;100.00
62791;BME280;48830;53.426;10.300;2023-02-19T01:05:47;101429.69;;;5.47;100.00
62791;BME280;48830;53.426;10.300;2023-02-19T01:08:13;101435.75;;;5.49;100.00
62791;BME280;48830;53.426;10.300;2023-02-19T01:10:39;101437.97;;;5.43;100.00
62791;BME280;48830;53.426;10.300;2023-02-19T01:13:04;101441.22;;;5.39;100.00
62791;BME280;48830;53.426;10.300;2023-02-19T01:15:31;101444.34;;;5.34;100.00
62791;BME280;48830;53.426;10.300;2023-02-19T01:17:57;101445.44;;;5.39;100.00
62791;BME280;48830;53.426;10.300;2023-02-19T01:20:22;101444.56;;;5.38;100.00
62791;BME280;48830;53.426;10.300;2023-02-19T01:22:48;101449.50;;;5.35;100.00
62791;BME280;48830;53.426;10.300;2023-02-19T01:25:13;101440.94;;;5.33;100.00
62791;BME280;48830;53.426;10.300;2023-02-19T01:27:39;101441.06;;;5.36;100.00
62791;BME280;48830;53.426;10.300;2023-02-19T01:30:04;101442.81;;;5.37;100.00
62791;BME280;48830;53.426;10.300;2023-02-19T01:32:30;101436.94;;;5.38;100.00
62791;BME280;48830;53.426;10.300;2023-02-19T01:34:55;101435.25;;;5.39;100.00
62791;BME280;48830;53.426;10.300;2023-02-19T01:37:21;101438.56;;;5.38;100.00
62791;BME280;48830;53.426;10.300;2023-02-19T01:39:46;101437.69;;;5.37;100.00
62791;BME280;48830;53.426;10.300;2023-02-19T01:42:14;101439.53;;;5.40;100.00
62791;BME280;48830;53.426;10.300;2023-02-19T01:47:10;101441.22;;;5.39;100.00
62791;BME280;48830;53.426;10.300;2023-02-19T01:49:52;101432.69;;;5.39;100.00
62791;BME280;48830;53.426;10.300;2023-02-19T01:52:29;101432.59;;;5.37;100.00
62791;BME280;48830;53.426;10.300;2023-02-19T01:54:59;101427.50;;;5.37;100.00
62791;BME280;48830;53.426;10.300;2023-02-19T01:57:29;101427.50;;;5.37;100.00
62791;BME280;48830;53.426;10.300;2023-02-19T02:00:03;101421.47;;;5.35;100.00
62791;BME280;48830;53.426;10.300;2023-02-19T02:02:39;101422.41;;;5.37;100.00
62791;BME280;48830;53.426;10.300;2023-02-19T02:05:09;101427.50;;;5.37;100.00
62791;BME280;48830;53.426;10.300;2023-02-19T02:07:37;101426.78;;;5.40;100.00
62791;BME280;48830;53.426;10.300;2023-02-19T02:10:22;101420.81;;;5.39;100.00
62791;BME280;48830;53.426;10.300;2023-02-19T02:12:49;101425.75;;;5.36;100.00
62791;BME280;48830;53.426;10.300;2023-02-19T02:15:16;101424.03;;;5.35;100.00
62791;BME280;48830;53.426;10.300;2023-02-19T02:17:52;101426.63;;;5.37;100.00
62791;BME280;48830;53.426;10.300;2023-02-19T02:31:34;101427.09;;;5.10;100.00
62791;BME280;48830;53.426;10.300;2023-02-19T02:34:20;101427.81;;;5.08;100.00
62791;BME280;48830;53.426;10.300;2023-02-19T02:36:52;101432.47;;;4.98;100.00
62791;BME280;48830;53.426;10.300;2023-02-19T02:39:23;101435.97;;;5.00;100.00
62791;BME280;48830;53.426;10.300;2023-02-19T02:41:54;101437.44;;;4.95;100.00
62791;BME280;48830;53.426;10.300;2023-02-19T02:44:41;101433.91;;;4.93;100.00
62791;BME280;48830;53.426;10.300;2023-02-19T02:47:08;101438.72;;;4.87;100.00
62791;BME280;48830;53.426;10.300;2023-02-19T02:49:55;101440.34;;;4.85;100.00
62791;BME280;48830;53.426;10.300;2023-02-19T02:52:35;101455.00;;;4.73;100.00
62791;BME280;48830;53.426;10.300;2023-02-19T02:55:23;101455.44;;;4.82;100.00
62791;BME280;48830;53.426;10.300;2023-02-19T02:57:49;101453.72;;;4.81;100.00
62791;BME280;48830;53.426;10.300;2023-02-19T03:00:15;101455.00;;;4.73;100.00
62791;BME280;48830;53.426;10.300;2023-02-19T03:02:42;101448.03;;;4.69;100.00
62791;BME280;48830;53.426;10.300;2023-02-19T03:05:18;101447.28;;;4.71;100.00
62791;BME280;48830;53.426;10.300;2023-02-19T03:08:08;101452.81;;;4.63;100.00
62791;BME280;48830;53.426;10.300;2023-02-19T03:13:05;101448.31;;;4.75;100.00
62791;BME280;48830;53.426;10.300;2023-02-19T03:15:55;101451.66;;;4.74;100.00
62791;BME280;48830;53.426;10.300;2023-02-19T03:18:42;101457.69;;;4.76;100.00
62791;BME280;48830;53.426;10.300;2023-02-19T03:21:30;101454.00;;;4.69;100.00
62791;BME280;48830;53.426;10.300;2023-02-19T03:23:57;101456.31;;;4.65;100.00
62791;BME280;48830;53.426;10.300;2023-02-19T03:26:42;101454.78;;;4.68;100.00
62791;BME280;48830;53.426;10.300;2023-02-19T03:29:10;101457.16;;;4.65;100.00
62791;BME280;48830;53.426;10.300;2023-02-19T03:31:57;101454.69;;;4.67;100.00
62791;BME280;48830;53.426;10.300;2023-02-19T03:34:51;101460.59;;;4.66;100.00
62791;BME280;48830;53.426;10.300;2023-02-19T03:37:24;101475.06;;;4.67;100.00
62791;BME280;48830;53.426;10.300;2023-02-19T03:39:52;101471.50;;;4.63;100.00
62791;BME280;48830;53.426;10.300;2023-02-19T03:47:56;101483.38;;;4.63;100.00
62791;BME280;48830;53.426;10.300;2023-02-19T03:50:37;101478.41;;;4.66;100.00
62791;BME280;48830;53.426;10.300;2023-02-19T03:56:09;101485.00;;;4.62;100.00
62791;BME280;48830;53.426;10.300;2023-02-19T04:01:52;101492.88;;;4.67;100.00
62791;BME280;48830;53.426;10.300;2023-02-19T04:06:52;101500.53;;;4.67;100.00
62791;BME280;48830;53.426;10.300;2023-02-19T04:09:20;101496.00;;;4.61;100.00
62791;BME280;48830;53.426;10.300;2023-02-19T04:11:52;101497.75;;;4.62;100.00
62791;BME280;48830;53.426;10.300;2023-02-19T04:14:23;101499.41;;;4.62;100.00
62791;BME280;48830;53.426;10.300;2023-02-19T04:16:53;101496.25;;;4.66;100.00
62791;BME280;48830;53.426;10.300;2023-02-19T04:19:23;101498.66;;;4.63;100.00
62791;BME280;48830;53.426;10.300;2023-02-19T04:21:50;101508.03;;;4.64;100.00
62791;BME280;48830;53.426;10.300;2023-02-19T04:24:46;101507.16;;;4.63;100.00
62791;BME280;48830;53.426;10.300;2023-02-19T04:27:13;101511.44;;;4.64;100.00
62791;BME280;48830;53.426;10.300;2023-02-19T04:29:39;101512.16;;;4.62;100.00
62791;BME280;48830;53.426;10.300;2023-02-19T04:32:04;101513.94;;;4.63;100.00
62791;BME280;48830;53.426;10.300;2023-02-19T04:34:30;101517.25;;;4.62;100.00
62791;BME280;48830;53.426;10.300;2023-02-19T04:36:55;101517.81;;;4.56;100.00
62791;BME280;48830;53.426;10.300;2023-02-19T04:39:21;101526.31;;;4.57;100.00
62791;BME280;48830;53.426;10.300;2023-02-19T04:41:46;101534.13;;;4.60;100.00
62791;BME280;48830;53.426;10.300;2023-02-19T04:44:12;101546.78;;;4.58;100.00
62791;BME280;48830;53.426;10.300;2023-02-19T04:46:39;101554.31;;;4.57;100.00
62791;BME280;48830;53.426;10.300;2023-02-19T04:49:04;101546.53;;;4.54;100.00
62791;BME280;48830;53.426;10.300;2023-02-19T04:51:30;101550.66;;;4.52;100.00
62791;BME280;48830;53.426;10.300;2023-02-19T04:53:55;101559.19;;;4.52;100.00
62791;BME280;48830;53.426;10.300;2023-02-19T04:56:21;101557.44;;;4.51;100.00
62791;BME280;48830;53.426;10.300;2023-02-19T04:58:46;101558.41;;;4.53;100.00
62791;BME280;48830;53.426;10.300;2023-02-19T05:01:12;101561.56;;;4.49;100.00
62791;BME280;48830;53.426;10.300;2023-02-19T05:03:37;101560.06;;;4.53;100.00
62791;BME280;48830;53.426;10.300;2023-02-19T05:06:05;101568.34;;;4.48;100.00
62791;BME280;48830;53.426;10.300;2023-02-19T05:08:30;101564.91;;;4.48;100.00
62791;BME280;48830;53.426;10.300;2023-02-19T05:10:58;101569.69;;;4.42;100.00
62791;BME280;48830;53.426;10.300;2023-02-19T05:13:23;101570.56;;;4.42;100.00
62791;BME280;48830;53.426;10.300;2023-02-19T05:15:59;101574.78;;;4.42;100.00
62791;BME280;48830;53.426;10.300;2023-02-19T05:18:25;101573.00;;;4.41;100.00
62791;BME280;48830;53.426;10.300;2023-02-19T05:20:51;101566.91;;;4.37;100.00
62791;BME280;48830;53.426;10.300;2023-02-19T05:23:18;101574.44;;;4.36;100.00
62791;BME280;48830;53.426;10.300;2023-02-19T05:25:43;101573.56;;;4.35;100.00
62791;BME280;48830;53.426;10.300;2023-02-19T05:28:09;101576.91;;;4.34;100.00
62791;BME280;48830;53.426;10.300;2023-02-19T05:30:48;101572.44;;;4.30;100.00
62791;BME280;48830;53.426;10.300;2023-02-19T05:33:15;101575.72;;;4.28;100.00
62791;BME280;48830;53.426;10.300;2023-02-19T05:35:43;101575.53;;;4.25;100.00
62791;BME280;48830;53.426;10.300;2023-02-19T05:38:09;101573.66;;;4.20;100.00
62791;BME280;48830;53.426;10.300;2023-02-19T05:40:35;101574.28;;;4.16;100.00
62791;BME280;48830;53.426;10.300;2023-02-19T05:43:01;101582.59;;;4.14;100.00
62791;BME280;48830;53.426;10.300;2023-02-19T05:45:26;101597.53;;;4.08;100.00
62791;BME280;48830;53.426;10.300;2023-02-19T05:47:52;101598.94;;;4.03;100.00
62791;BME280;48830;53.426;10.300;2023-02-19T05:50:17;101605.81;;;4.04;100.00
62791;BME280;48830;53.426;10.300;2023-02-19T05:52:43;101603.16;;;4.02;100.00
62791;BME280;48830;53.426;10.300;2023-02-19T05:55:10;101612.94;;;3.94;100.00
62791;BME280;48830;53.426;10.300;2023-02-19T05:57:43;101609.50;;;3.94;100.00
62791;BME280;48830;53.426;10.300;2023-02-19T06:00:10;101610.94;;;3.89;100.00
62791;BME280;48830;53.426;10.300;2023-02-19T06:02:37;101620.03;;;3.85;100.00
62791;BME280;48830;53.426;10.300;2023-02-19T06:05:03;101624.19;;;3.83;100.00
62791;BME280;48830;53.426;10.300;2023-02-19T06:07:29;101628.28;;;3.81;100.00
62791;BME280;48830;53.426;10.300;2023-02-19T06:09:55;101623.03;;;3.78;100.00
62791;BME280;48830;53.426;10.300;2023-02-19T06:12:21;101633.81;;;3.74;100.00
62791;BME280;48830;53.426;10.300;2023-02-19T06:14:46;101644.59;;;3.70;100.00
62791;BME280;48830;53.426;10.300;2023-02-19T06:17:12;101652.16;;;3.68;100.00
62791;BME280;48830;53.426;10.300;2023-02-19T06:19:37;101659.72;;;3.67;100.00
62791;BME280;48830;53.426;10.300;2023-02-19T06:22:03;101660.31;;;3.63;100.00
62791;BME280;48830;53.426;10.300;2023-02-19T06:24:28;101660.13;;;3.60;100.00
62791;BME280;48830;53.426;10.300;2023-02-19T06:26:54;101671.88;;;3.58;100.00
62791;BME280;48830;53.426;10.300;2023-02-19T06:29:20;101677.75;;;3.57;100.00
62791;BME280;48830;53.426;10.300;2023-02-19T06:31:45;101684.25;;;3.52;100.00
62791;BME280;48830;53.426;10.300;2023-02-19T06:34:11;101684.41;;;3.55;100.00
62791;BME280;48830;53.426;10.300;2023-02-19T06:36:36;101687.56;;;3.51;100.00
62791;BME280;48830;53.426;10.300;2023-02-19T06:39:04;101695.34;;;3.54;100.00
62791;BME280;48830;53.426;10.300;2023-02-19T06:41:29;101703.69;;;3.51;100.00
62791;BME280;48830;53.426;10.300;2023-02-19T06:43:58;101713.88;;;3.51;100.00
62791;BME280;48830;53.426;10.300;2023-02-19T06:46:24;101719.63;;;3.49;100.00
62791;BME280;48830;53.426;10.300;2023-02-19T06:48:50;101722.97;;;3.48;100.00
62791;BME280;48830;53.426;10.300;2023-02-19T06:51:17;101729.00;;;3.50;100.00
62791;BME280;48830;53.426;10.300;2023-02-19T06:53:44;101737.63;;;3.52;100.00
62791;BME280;48830;53.426;10.300;2023-02-19T06:56:42;101736.03;;;3.54;100.00
62791;BME280;48830;53.426;10.300;2023-02-19T06:59:10;101742.78;;;3.53;100.00
62791;BME280;48830;53.426;10.300;2023-02-19T07:01:38;101744.81;;;3.59;100.00
62791;BME280;48830;53.426;10.300;2023-02-19T07:04:04;101750.69;;;3.58;100.00
62791;BME280;48830;53.426;10.300;2023-02-19T07:06:31;101760.34;;;3.63;100.00
62791;BME280;48830;53.426;10.300;2023-02-19T07:08:58;101762.78;;;3.62;100.00
62791;BME280;48830;53.426;10.300;2023-02-19T07:11:24;101762.78;;;3.62;100.00
62791;BME280;48830;53.426;10.300;2023-02-19T07:13:54;101765.41;;;3.63;100.00
62791;BME280;48830;53.426;10.300;2023-02-19T07:16:20;101764.34;;;3.60;100.00
62791;BME280;48830;53.426;10.300;2023-02-19T07:18:45;101761.72;;;3.58;100.00
62791;BME280;48830;53.426;10.300;2023-02-19T07:21:13;101777.25;;;3.63;100.00
62791;BME280;48830;53.426;10.300;2023-02-19T07:23:39;101774.53;;;3.60;100.00
62791;BME280;48830;53.426;10.300;2023-02-19T07:26:11;101785.94;;;3.66;100.00
62791;BME280;48830;53.426;10.300;2023-02-19T07:28:37;101791.13;;;3.68;100.00
62791;BME280;48830;53.426;10.300;2023-02-19T07:31:03;101800.97;;;3.77;100.00
62791;BME280;48830;53.426;10.300;2023-02-19T07:33:29;101806.84;;;3.90;100.00
62791;BME280;48830;53.426;10.300;2023-02-19T07:35:54;101809.13;;;4.01;100.00
62791;BME280;48830;53.426;10.300;2023-02-19T07:38:21;101809.22;;;4.02;100.00
62791;BME280;48830;53.426;10.300;2023-02-19T07:40:56;101818.34;;;4.13;100.00
62791;BME280;48830;53.426;10.300;2023-02-19T07:43:23;101829.34;;;4.27;100.00
62791;BME280;48830;53.426;10.300;2023-02-19T07:45:49;101827.31;;;4.36;100.00
62791;BME280;48830;53.426;10.300;2023-02-19T07:48:15;101831.44;;;4.34;100.00
62791;BME280;48830;53.426;10.300;2023-02-19T07:50:41;101838.28;;;4.35;100.00
62791;BME280;48830;53.426;10.300;2023-02-19T07:53:06;101836.00;;;4.40;100.00
62791;BME280;48830;53.426;10.300;2023-02-19T07:55:32;101835.66;;;4.48;100.00
62791;BME280;48830;53.426;10.300;2023-02-19T07:57:59;101843.63;;;4.55;100.00
62791;BME280;48830;53.426;10.300;2023-02-19T08:00:25;101845.38;;;4.70;100.00
62791;BME280;48830;53.426;10.300;2023-02-19T08:02:52;101849.03;;;4.90;100.00
62791;BME280;48830;53.426;10.300;2023-02-19T08:05:32;101868.03;;;5.12;100.00
62791;BME280;48830;53.426;10.300;2023-02-19T08:07:58;101868.53;;;5.21;100.00
62791;BME280;48830;53.426;10.300;2023-02-19T08:10:25;101878.13;;;5.41;100.00
62791;BME280;48830;53.426;10.300;2023-02-19T08:13:12;101876.31;;;5.39;100.00
62791;BME280;48830;53.426;10.300;2023-02-19T08:15:45;101878.13;;;5.41;100.00
62791;BME280;48830;53.426;10.300;2023-02-19T08:18:11;101877.72;;;5.34;100.00
62791;BME280;48830;53.426;10.300;2023-02-19T08:20:38;101876.84;;;5.33;100.00
62791;BME280;48830;53.426;10.300;2023-02-19T08:23:05;101880.50;;;5.22;100.00
62791;BME280;48830;53.426;10.300;2023-02-19T08:25:31;101889.72;;;5.20;100.00
62791;BME280;48830;53.426;10.300;2023-02-19T08:27:57;101889.44;;;5.46;100.00
62791;BME280;48830;53.426;10.300;2023-02-19T08:30:25;101886.28;;;5.67;100.00
62791;BME280;48830;53.426;10.300;2023-02-19T08:32:50;101889.16;;;5.89;100.00
62791;BME280;48830;53.426;10.300;2023-02-19T08:35:16;101887.09;;;6.15;100.00
62791;BME280;48830;53.426;10.300;2023-02-19T08:37:41;101889.63;;;6.31;100.00
62791;BME280;48830;53.426;10.300;2023-02-19T08:40:07;101889.91;;;6.53;100.00
62791;BME280;48830;53.426;10.300;2023-02-19T08:42:32;101880.72;;;6.75;100.00
62791;BME280;48830;53.426;10.300;2023-02-19T08:44:58;101886.69;;;6.93;100.00
62791;BME280;48830;53.426;10.300;2023-02-19T08:47:23;101898.63;;;7.10;100.00
62791;BME280;48830;53.426;10.300;2023-02-19T08:49:48;101893.78;;;7.17;100.00
62791;BME280;48830;53.426;10.300;2023-02-19T08:52:14;101900.84;;;7.40;100.00
62791;BME280;48830;53.426;10.300;2023-02-19T08:54:39;101899.59;;;7.50;100.00
62791;BME280;48830;53.426;10.300;2023-02-19T08:57:05;101915.31;;;7.77;100.00
62791;BME280;48830;53.426;10.300;2023-02-19T08:59:30;101923.09;;;7.80;100.00
62791;BME280;48830;53.426;10.300;2023-02-19T09:01:59;101933.41;;;8.01;100.00
62791;BME280;48830;53.426;10.300;2023-02-19T09:04:24;101935.13;;;8.20;100.00
62791;BME280;48830;53.426;10.300;2023-02-19T09:06:50;101939.91;;;8.51;100.00
62791;BME280;48830;53.426;10.300;2023-02-19T09:09:15;101938.97;;;8.70;100.00
62791;BME280;48830;53.426;10.300;2023-02-19T09:11:41;101938.69;;;8.83;100.00
62791;BME280;48830;53.426;10.300;2023-02-19T09:14:06;101935.53;;;8.90;100.00
62791;BME280;48830;53.426;10.300;2023-02-19T09:16:33;101956.16;;;9.14;100.00
62791;BME280;48830;53.426;10.300;2023-02-19T09:18:58;101956.66;;;9.49;100.00
62791;BME280;48830;53.426;10.300;2023-02-19T09:21:24;101962.66;;;9.71;100.00
62791;BME280;48830;53.426;10.300;2023-02-19T09:23:49;101966.63;;;10.10;100.00
62791;BME280;48830;53.426;10.300;2023-02-19T09:26:15;101978.09;;;10.42;100.00
62791;BME280;48830;53.426;10.300;2023-02-19T09:28:40;101990.09;;;11.73;100.00
62791;BME280;48830;53.426;10.300;2023-02-19T09:31:07;101982.25;;;16.30;72.38
62791;BME280;48830;53.426;10.300;2023-02-19T09:33:33;101985.91;;;17.52;59.86
62791;BME280;48830;53.426;10.300;2023-02-19T09:35:59;101989.00;;;18.86;52.90
62791;BME280;48830;53.426;10.300;2023-02-19T09:38:25;101991.56;;;19.49;50.62
62791;BME280;48830;53.426;10.300;2023-02-19T09:40:51;101990.38;;;20.27;48.43
62791;BME280;48830;53.426;10.300;2023-02-19T09:43:19;101993.00;;;20.27;48.31
62791;BME280;48830;53.426;10.300;2023-02-19T09:45:48;101995.66;;;20.21;48.58
62791;BME280;48830;53.426;10.300;2023-02-19T09:48:16;102001.91;;;21.19;45.05
62791;BME280;48830;53.426;10.300;2023-02-19T09:50:45;102009.22;;;21.76;44.14
62791;BME280;48830;53.426;10.300;2023-02-19T09:53:20;102022.84;;;19.45;49.88
62791;BME280;48830;53.426;10.300;2023-02-19T09:55:46;102024.91;;;17.50;50.60
62791;BME280;48830;53.426;10.300;2023-02-19T09:59:03;102017.53;;;18.30;48.93
62791;BME280;48830;53.426;10.300;2023-02-19T10:01:10;102016.34;;;17.67;53.71
62791;BME280;48830;53.426;10.300;2023-02-19T10:03:46;102022.88;;;19.20;51.20
62791;BME280;48830;53.426;10.300;2023-02-19T10:06:23;102021.56;;;21.65;42.34
62791;BME280;48830;53.426;10.300;2023-02-19T10:08:51;102032.59;;;17.37;47.93
62791;BME280;48830;53.426;10.300;2023-02-19T10:11:17;102035.59;;;16.05;53.09
62791;BME280;48830;53.426;10.300;2023-02-19T10:13:49;102050.38;;;21.63;43.42
62791;BME280;48830;53.426;10.300;2023-02-19T10:16:24;102068.81;;;20.05;45.77
62791;BME280;48830;53.426;10.300;2023-02-19T10:18:51;102065.75;;;14.47;59.18
62791;BME280;48830;53.426;10.300;2023-02-19T10:21:25;102073.13;;;18.56;47.22
62791;BME280;48830;53.426;10.300;2023-02-19T10:23:58;102075.72;;;20.17;46.01
62791;BME280;48830;53.426;10.300;2023-02-19T10:26:25;102078.28;;;18.32;49.80
62791;BME280;48830;53.426;10.300;2023-02-19T10:28:51;102071.88;;;16.73;48.12
62791;BME280;48830;53.426;10.300;2023-02-19T10:31:21;102085.78;;;20.96;42.44
62791;BME280;48830;53.426;10.300;2023-02-19T10:33:55;102094.94;;;19.96;41.31
62791;BME280;48830;53.426;10.300;2023-02-19T10:36:30;102097.47;;;20.17;43.10
62791;BME280;48830;53.426;10.300;2023-02-19T10:38:56;102082.44;;;24.10;36.75
62791;BME280;48830;53.426;10.300;2023-02-19T10:41:24;102090.88;;;25.43;35.11
62791;BME280;48830;53.426;10.300;2023-02-19T10:43:54;102095.72;;;25.24;35.14
62791;BME280;48830;53.426;10.300;2023-02-19T10:46:28;102100.28;;;23.47;37.34
62791;BME280;48830;53.426;10.300;2023-02-19T10:48:57;102098.31;;;18.57;41.89
62791;BME280;48830;53.426;10.300;2023-02-19T10:51:38;102099.81;;;24.61;35.34
62791;BME280;48830;53.426;10.300;2023-02-19T10:54:19;102103.59;;;20.10;37.84
62791;BME280;48830;53.426;10.300;2023-02-19T10:56:48;102099.66;;;21.03;36.61
62791;BME280;48830;53.426;10.300;2023-02-19T11:04:22;102096.72;;;19.86;41.99
62791;BME280;48830;53.426;10.300;2023-02-19T11:06:48;102104.25;;;25.33;33.71
62791;BME280;48830;53.426;10.300;2023-02-19T11:11:53;102123.19;;;26.46;31.40
62791;BME280;48830;53.426;10.300;2023-02-19T11:14:21;102130.44;;;26.06;32.65
62791;BME280;48830;53.426;10.300;2023-02-19T11:16:53;102131.63;;;26.86;30.86
62791;BME280;48830;53.426;10.300;2023-02-19T11:19:39;102130.09;;;27.85;29.65
62791;BME280;48830;53.426;10.300;2023-02-19T11:22:26;102129.69;;;28.21;29.91
62791;BME280;48830;53.426;10.300;2023-02-19T11:24:53;102139.16;;;28.73;28.34
62791;BME280;48830;53.426;10.300;2023-02-19T11:27:23;102126.19;;;29.53;27.75
62791;BME280;48830;53.426;10.300;2023-02-19T11:29:49;102129.78;;;28.43;27.78
62791;BME280;48830;53.426;10.300;2023-02-19T11:32:28;102130.41;;;28.49;28.04
62791;BME280;48830;53.426;10.300;2023-02-19T11:40:19;102115.13;;;30.62;26.86
62791;BME280;48830;53.426;10.300;2023-02-19T11:45:47;102128.63;;;29.99;26.87
62791;BME280;48830;53.426;10.300;2023-02-19T11:48:35;102124.09;;;30.59;26.27
62791;BME280;48830;53.426;10.300;2023-02-19T11:52:01;102126.94;;;30.92;25.67
62791;BME280;48830;53.426;10.300;2023-02-19T11:56:42;102135.69;;;28.49;27.23
62791;BME280;48830;53.426;10.300;2023-02-19T12:13:24;102128.84;;;27.95;28.07
62791;BME280;48830;53.426;10.300;2023-02-19T12:16:02;102131.91;;;27.32;28.22
62791;BME280;48830;53.426;10.300;2023-02-19T12:18:46;102128.38;;;27.05;28.96
62791;BME280;48830;53.426;10.300;2023-02-19T12:21:38;102129.22;;;24.78;30.76
62791;BME280;48830;53.426;10.300;2023-02-19T12:35:27;102151.38;;;22.61;34.60
62791;BME280;48830;53.426;10.300;2023-02-19T12:43:21;102150.44;;;20.67;36.98
62791;BME280;48830;53.426;10.300;2023-02-19T12:45:54;102150.47;;;20.50;37.15
62791;BME280;48830;53.426;10.300;2023-02-19T12:48:35;102153.25;;;19.38;38.38
62791;BME280;48830;53.426;10.300;2023-02-19T12:51:13;102158.41;;;19.00;39.00
62791;BME280;48830;53.426;10.300;2023-02-19T12:53:53;102158.31;;;20.58;38.09
62791;BME280;48830;53.426;10.300;2023-02-19T12:56:24;102155.81;;;19.58;37.80
62791;BME280;48830;53.426;10.300;2023-02-19T12:58:55;102156.59;;;20.52;36.98
62791;BME280;48830;53.426;10.300;2023-02-19T13:01:25;102152.03;;;20.94;36.61
62791;BME280;48830;53.426;10.300;2023-02-19T13:04:44;102154.84;;;20.42;36.56
62791;BME280;48830;53.426;10.300;2023-02-19T13:07:01;102155.63;;;20.75;36.71
62791;BME280;48830;53.426;10.300;2023-02-19T13:12:23;102151.50;;;19.51;38.45
62791;BME280;48830;53.426;10.300;2023-02-19T13:14:55;102134.06;;;19.07;38.95
62791;BME280;48830;53.426;10.300;2023-02-19T13:34:46;102111.47;;;18.85;41.27
62791;BME280;48830;53.426;10.300;2023-02-19T13:37:15;102113.19;;;18.92;41.25
62791;BME280;48830;53.426;10.300;2023-02-19T13:39:52;102121.75;;;18.56;41.47
62791;BME280;48830;53.426;10.300;2023-02-19T13:42:38;102127.44;;;17.81;41.62
62791;BME280;48830;53.426;10.300;2023-02-19T13:45:05;102118.00;;;18.00;42.11
62791;BME280;48830;53.426;10.300;2023-02-19T13:50:30;102118.38;;;17.35;42.03
62791;BME280;48830;53.426;10.300;2023-02-19T13:52:57;102121.03;;;17.40;42.20
62791;BME280;48830;53.426;10.300;2023-02-19T13:55:43;102126.41;;;17.64;42.98
62791;BME280;48830;53.426;10.300;2023-02-19T14:03:54;102134.41;;;17.87;41.07
62791;BME280;48830;53.426;10.300;2023-02-19T14:14:43;102144.75;;;15.14;45.12
62791;BME280;48830;53.426;10.300;2023-02-19T14:33:37;102154.16;;;16.13;43.54
62791;BME280;48830;53.426;10.300;2023-02-19T14:36:18;102150.91;;;16.26;43.85
62791;BME280;48830;53.426;10.300;2023-02-19T14:41:36;102153.50;;;16.28;44.10
62791;BME280;48830;53.426;10.300;2023-02-19T14:44:06;102157.59;;;16.11;44.38
62791;BME280;48830;53.426;10.300;2023-02-19T14:46:40;102148.50;;;15.81;44.19
62791;BME280;48830;53.426;10.300;2023-02-19T14:51:42;102136.94;;;15.62;46.50
62791;BME280;48830;53.426;10.300;2023-02-19T14:54:34;102132.97;;;15.83;45.14
62791;BME280;48830;53.426;10.300;2023-02-19T14:57:02;102131.22;;;15.30;45.83
62791;BME280;48830;53.426;10.300;2023-02-19T14:59:29;102128.44;;;15.18;46.74
62791;BME280;48830;53.426;10.300;2023-02-19T15:02:12;102123.41;;;15.80;46.21
62791;BME280;48830;53.426;10.300;2023-02-19T15:04:38;102129.84;;;15.51;45.59
62791;BME280;48830;53.426;10.300;2023-02-19T15:07:09;102124.13;;;15.70;46.33
62791;BME280;48830;53.426;10.300;2023-02-19T15:09:40;102127.38;;;15.58;46.29
62791;BME280;48830;53.426;10.300;2023-02-19T15:12:06;102125.34;;;15.40;46.37
62791;BME280;48830;53.426;10.300;2023-02-19T15:14:32;102135.91;;;15.53;46.83
62791;BME280;48830;53.426;10.300;2023-02-19T15:17:01;102134.19;;;15.52;47.01